createdAt,value
2019-02-17T00:02:40.672Z,51.40
2019-02-17T00:07:49.615Z,51.38
2019-02-17T00:12:58.647Z,67.67
2019-02-17T00:18:07.582Z,51.57
2019-02-17T00:23:16.618Z,50.63
2019-02-17T00:28:25.556Z,43.85
2019-02-17T00:33:34.593Z,50.78
2019-02-17T00:38:43.526Z,58.24
2019-02-17T00:43:52.524Z,61.62
2019-02-17T00:49:01.483Z,70.21
2019-02-17T00:54:10.451Z,78.07
2019-02-17T00:59:19.822Z,70.12
2019-02-17T01:04:28.790Z,62.29
2019-02-17T01:09:37.812Z,60.26
2019-02-17T01:14:47.662Z,58.34
2019-02-17T01:19:56.660Z,56.94
2019-02-17T01:25:05.682Z,57.79
2019-02-17T01:30:14.683Z,56.39
2019-02-17T01:35:23.831Z,54.79
2019-02-17T01:40:32.754Z,63.96
2019-02-17T01:45:41.905Z,55.11
2019-02-17T01:50:50.863Z,58.60
2019-02-17T01:55:59.824Z,68.19
2019-02-17T02:01:08.799Z,54.02
2019-02-17T02:06:17.806Z,51.82
2019-02-17T02:11:26.786Z,60.16
2019-02-17T02:16:35.795Z,65.46
2019-02-17T02:21:44.746Z,54.47
2019-02-17T02:26:53.903Z,55.11
2019-02-17T02:32:02.865Z,58.80
2019-02-17T02:37:11.863Z,69.02
2019-02-17T02:42:20.830Z,68.06
2019-02-17T02:47:29.818Z,67.13
2019-02-17T02:52:38.755Z,68.52
2019-02-17T02:57:47.782Z,74.02
2019-02-17T03:02:56.775Z,74.58
2019-02-17T03:08:05.811Z,78.75
2019-02-17T03:13:14.719Z,70.88
2019-02-17T03:18:23.728Z,72.49
2019-02-17T03:23:32.730Z,71.49
2019-02-17T03:28:41.706Z,70.13
2019-02-17T03:33:50.844Z,72.10
2019-02-17T03:38:59.783Z,68.67
2019-02-17T03:44:08.926Z,71.25
2019-02-17T03:49:17.865Z,65.13
2019-02-17T03:54:26.891Z,63.67
2019-02-17T03:59:35.809Z,62.97
2019-02-17T04:04:44.798Z,60.12
2019-02-17T04:09:54.847Z,62.77
2019-02-17T04:14:53.820Z,58.11
2019-02-17T04:20:02.820Z,58.56
2019-02-17T04:25:11.769Z,60.45
2019-02-17T04:30:28.767Z,54.23
2019-02-17T04:35:29.236Z,55.59
2019-02-17T04:40:38.231Z,61.00
2019-02-17T04:45:47.183Z,52.63
2019-02-17T04:50:56.246Z,59.26
2019-02-17T04:56:05.167Z,55.96
2019-02-17T05:01:16.658Z,56.17
2019-02-17T05:06:15.654Z,59.30
2019-02-17T05:11:24.982Z,52.80
2019-02-17T05:16:33.922Z,51.37
2019-02-17T05:21:42.958Z,56.89
2019-02-17T05:26:51.906Z,56.75
2019-02-17T05:32:00.934Z,49.25
2019-02-17T05:37:09.868Z,51.10
2019-02-17T05:42:18.834Z,55.08
2019-02-17T05:47:27.782Z,56.11
2019-02-17T05:52:36.758Z,55.70
2019-02-17T05:57:45.707Z,54.88
2019-02-17T06:02:54.865Z,56.74
2019-02-17T06:08:03.802Z,53.85
2019-02-17T06:13:12.810Z,57.80
2019-02-17T06:18:21.770Z,56.72
2019-02-17T06:23:30.817Z,56.89
2019-02-17T06:28:39.749Z,51.30
2019-02-17T06:33:48.740Z,58.04
2019-02-17T06:38:57.682Z,56.82
2019-02-17T06:44:06.680Z,54.47
2019-02-17T06:49:15.666Z,54.74
2019-02-17T06:54:24.713Z,54.48
2019-02-17T06:59:33.639Z,51.67
2019-02-17T07:04:42.682Z,53.36
2019-02-17T07:09:51.643Z,52.57
2019-02-17T07:15:00.649Z,50.19
2019-02-17T07:20:09.867Z,54.64
2019-02-17T07:25:18.571Z,56.28
2019-02-17T07:30:27.596Z,55.82
2019-02-17T07:35:36.536Z,58.96
2019-02-17T07:40:45.498Z,52.83
2019-02-17T07:45:54.466Z,52.89
2019-02-17T07:51:03.449Z,51.77
2019-02-17T07:56:12.422Z,56.50
2019-02-17T08:01:21.357Z,54.00
2019-02-17T08:06:30.299Z,49.75
2019-02-17T08:11:39.276Z,54.28
2019-02-17T08:16:48.274Z,51.25
2019-02-17T08:21:57.218Z,53.16
2019-02-17T08:27:06.242Z,52.14
2019-02-17T08:32:15.190Z,55.51
2019-02-17T08:37:24.206Z,52.49
2019-02-17T08:42:33.171Z,53.62
2019-02-17T08:47:42.186Z,53.80
2019-02-17T08:52:51.130Z,49.88
2019-02-17T08:58:00.095Z,49.36
2019-02-17T09:03:09.067Z,48.76
2019-02-17T09:08:18.101Z,48.18
2019-02-17T09:13:27.043Z,49.51
2019-02-17T09:18:36.076Z,46.06
2019-02-17T09:23:45.106Z,48.72
2019-02-17T09:28:54.206Z,46.44
2019-02-17T09:34:03.106Z,46.90
2019-02-17T09:39:12.054Z,45.37
2019-02-17T09:44:21.023Z,46.85
2019-02-17T09:49:30.011Z,47.90
2019-02-17T09:54:38.994Z,43.09
2019-02-17T09:59:47.974Z,45.12
2019-02-17T10:04:56.930Z,45.87
2019-02-17T10:10:05.944Z,42.78
2019-02-17T10:15:14.926Z,40.79
2019-02-17T10:20:24.581Z,40.14
2019-02-17T10:25:32.378Z,41.36
2019-02-17T10:30:41.360Z,38.65
2019-02-17T10:35:50.310Z,40.93
2019-02-17T10:40:59.260Z,40.96
2019-02-17T10:46:08.219Z,40.34
2019-02-17T10:51:17.180Z,40.78
2019-02-17T10:56:26.134Z,39.36
2019-02-17T11:01:35.106Z,40.45
2019-02-17T11:06:44.043Z,36.36
2019-02-17T11:11:53.035Z,37.79
2019-02-17T11:17:01.971Z,37.20
2019-02-17T11:22:11.131Z,37.15
2019-02-17T11:27:20.060Z,38.19
2019-02-17T11:32:29.074Z,36.95
2019-02-17T11:37:38.000Z,36.00
2019-02-17T11:42:46.973Z,36.51
2019-02-17T11:47:55.951Z,37.75
2019-02-17T11:53:04.966Z,40.23
2019-02-17T11:58:13.918Z,36.84
2019-02-17T12:03:22.866Z,37.89
2019-02-17T12:08:31.872Z,38.53
2019-02-17T12:13:40.806Z,40.12
2019-02-17T12:18:49.719Z,37.67
2019-02-17T12:23:58.667Z,35.43
2019-02-17T12:29:07.682Z,38.21
2019-02-17T12:34:16.635Z,35.34
2019-02-17T12:39:25.682Z,35.32
2019-02-17T12:44:35.615Z,36.49
2019-02-17T12:49:43.106Z,34.48
2019-02-17T12:54:52.028Z,35.07
2019-02-17T13:00:00.991Z,33.68
2019-02-17T13:05:09.938Z,33.07
2019-02-17T13:10:18.930Z,32.70
2019-02-17T13:15:27.870Z,32.63
2019-02-17T13:20:36.894Z,31.68
2019-02-17T13:25:45.838Z,29.90
2019-02-17T13:30:54.818Z,32.30
2019-02-17T13:36:03.838Z,29.93
2019-02-17T13:41:12.858Z,31.77
2019-02-17T13:46:21.804Z,30.82
2019-02-17T13:51:30.954Z,30.25
2019-02-17T13:56:39.898Z,29.62
2019-02-17T14:01:48.902Z,31.20
2019-02-17T14:06:57.878Z,30.50
2019-02-17T14:12:06.889Z,29.77
2019-02-17T14:17:18.698Z,30.30
2019-02-17T14:22:16.213Z,27.87
2019-02-17T14:27:25.179Z,29.10
2019-02-17T14:32:34.182Z,27.64
2019-02-17T14:37:43.123Z,25.49
2019-02-17T14:42:52.169Z,25.56
2019-02-17T14:48:01.122Z,24.63
2019-02-17T14:53:10.102Z,24.65
2019-02-17T14:58:19.504Z,22.49
2019-02-17T15:03:27.528Z,23.42
2019-02-17T15:08:36.538Z,21.49
2019-02-17T15:13:45.523Z,22.17
2019-02-17T15:18:54.582Z,20.88
2019-02-17T15:24:03.551Z,20.34
2019-02-17T15:29:12.546Z,23.11
2019-02-17T15:34:21.514Z,22.05
2019-02-17T15:39:30.467Z,22.81
2019-02-17T15:44:39.410Z,23.61
2019-02-17T15:49:48.402Z,23.01
2019-02-17T15:54:57.351Z,22.12
2019-02-17T16:00:06.455Z,20.64
2019-02-17T16:05:15.426Z,20.92
2019-02-17T16:10:24.471Z,21.01
2019-02-17T16:15:33.401Z,19.75
2019-02-17T16:20:42.429Z,20.12
2019-02-17T16:25:51.373Z,19.48
2019-02-17T16:31:00.375Z,19.65
2019-02-17T16:36:09.347Z,19.20
2019-02-17T16:41:18.350Z,20.82
2019-02-17T16:46:27.335Z,20.29
2019-02-17T16:51:36.431Z,21.88
2019-02-17T16:56:45.424Z,19.85
2019-02-17T17:01:54.439Z,19.65
2019-02-17T17:07:03.406Z,20.02
2019-02-17T17:12:12.412Z,20.24
2019-02-17T17:17:21.386Z,17.26
2019-02-17T17:22:31.098Z,17.11
2019-02-17T17:27:41.428Z,17.80
2019-02-17T17:32:48.694Z,18.24
2019-02-17T17:37:57.714Z,17.04
2019-02-17T17:43:06.680Z,17.29
2019-02-17T17:48:15.734Z,17.78
2019-02-17T17:53:24.685Z,15.97
2019-02-17T17:58:33.681Z,15.79
2019-02-17T18:03:42.672Z,15.36
2019-02-17T18:08:51.634Z,17.54
2019-02-17T18:14:00.737Z,16.37
2019-02-17T18:19:09.623Z,14.78
2019-02-17T18:24:19.530Z,16.08
2019-02-17T18:29:28.490Z,14.54
2019-02-17T18:34:37.490Z,15.74
2019-02-17T18:39:46.427Z,13.97
2019-02-17T18:44:55.606Z,13.45
2019-02-17T18:50:04.571Z,14.58
2019-02-17T18:55:13.654Z,14.05
2019-02-17T19:00:22.575Z,14.26
2019-02-17T19:05:32.479Z,14.02
2019-02-17T19:10:40.361Z,13.91
2019-02-17T19:15:49.401Z,15.14
2019-02-17T19:20:58.359Z,15.41
2019-02-17T19:26:07.324Z,14.11
2019-02-17T19:31:16.286Z,16.07
2019-02-17T19:36:25.294Z,15.62
2019-02-17T19:41:34.257Z,16.26
2019-02-17T19:46:44.804Z,16.81
2019-02-17T19:51:51.816Z,14.93
2019-02-17T19:57:00.790Z,14.55
2019-02-17T20:02:09.730Z,14.98
2019-02-17T20:07:18.742Z,14.59
2019-02-17T20:12:27.690Z,16.26
2019-02-17T20:17:36.662Z,17.18
2019-02-17T20:22:45.607Z,19.12
2019-02-17T20:27:54.582Z,18.40
2019-02-17T20:33:03.565Z,19.16
2019-02-17T20:38:12.530Z,18.04
2019-02-17T20:43:21.478Z,18.31
2019-02-17T20:48:30.433Z,18.68
2019-02-17T20:53:39.378Z,20.07
2019-02-17T20:58:48.315Z,19.08
2019-02-17T21:03:57.262Z,17.05
2019-02-17T21:09:06.216Z,17.06
2019-02-17T21:14:15.194Z,17.19
2019-02-17T21:19:24.154Z,16.38
2019-02-17T21:24:33.110Z,16.93
2019-02-17T21:29:42.074Z,18.08
2019-02-17T21:34:52.463Z,16.58
2019-02-17T21:39:51.439Z,17.71
2019-02-17T21:45:00.411Z,17.46
2019-02-17T21:50:09.345Z,17.68
2019-02-17T21:55:18.675Z,19.08
2019-02-17T22:00:27.626Z,15.42
2019-02-17T22:05:36.615Z,16.72
2019-02-17T22:10:45.542Z,20.43
2019-02-17T22:15:54.565Z,18.45
2019-02-17T22:21:03.499Z,17.02
2019-02-17T22:26:12.522Z,17.67
2019-02-17T22:31:21.459Z,17.27
2019-02-17T22:36:30.394Z,16.60
2019-02-17T22:41:39.339Z,17.85
2019-02-17T22:46:48.291Z,15.65
2019-02-17T22:51:57.247Z,16.54
2019-02-17T22:57:06.187Z,15.83
2019-02-17T23:02:15.161Z,16.74
2019-02-17T23:07:24.102Z,16.21
2019-02-17T23:12:33.098Z,17.01
2019-02-17T23:17:42.337Z,16.99
2019-02-17T23:22:51.382Z,16.05
2019-02-17T23:28:01.485Z,16.47
2019-02-17T23:33:02.862Z,15.63
2019-02-17T23:58:26.245Z,15.45
